Time;durP1;ratioP1;P1;durP2;ratioP2;P2;SDS_P1;SDS_P2;PMS_P1;PMS_P2;Temp;Humidity;BMP_temperature;BMP_pressure;BME280_temperature;BME280_humidity;BME280_pressure;Samples;Min_cycle;Max_cycle;Signal;HPM_P1;HPM_P2
2023/08/20 00:00:13;;;;;;;32.80;30.80;;;25.50;99.90;;;;;;5055881;28;20488;-51
2023/08/20 00:02:43;;;;;;;33.03;31.13;;;25.50;99.90;;;;;;5056424;28;20444;-56
2023/08/20 00:05:10;;;;;;;33.87;31.83;;;25.40;99.90;;;;;;5063390;28;20476;-54
2023/08/20 00:07:38;;;;;;;32.33;30.43;;;25.40;99.90;;;;;;5062242;28;20483;-55
2023/08/20 00:10:06;;;;;;;32.67;30.77;;;25.40;99.90;;;;;;5063831;28;20478;-57
2023/08/20 00:12:34;;;;;;;32.60;30.70;;;25.40;99.90;;;;;;5054764;28;20483;-55
2023/08/20 00:15:05;;;;;;;31.97;29.90;;;25.40;99.90;;;;;;5061974;28;20482;-56
2023/08/20 00:17:33;;;;;;;33.37;31.27;;;25.40;99.90;;;;;;5067397;28;20926;-57
2023/08/20 00:20:00;;;;;;;32.30;30.50;;;25.40;99.90;;;;;;5058848;28;20495;-50
2023/08/20 00:22:28;;;;;;;33.33;31.47;;;25.40;99.90;;;;;;5054112;28;20480;-52
2023/08/20 00:24:55;;;;;;;34.00;31.93;;;25.40;99.90;;;;;;5053695;28;20452;-52
2023/08/20 00:27:22;;;;;;;33.33;31.23;;;25.30;99.90;;;;;;5071788;28;20475;-56
2023/08/20 00:29:51;;;;;;;33.67;31.73;;;25.40;99.90;;;;;;5073987;28;20511;-53
2023/08/20 00:32:18;;;;;;;32.87;30.97;;;25.30;99.90;;;;;;5062140;28;20538;-55
2023/08/20 00:34:45;;;;;;;33.63;31.63;;;25.30;99.90;;;;;;5072861;28;20493;-56
2023/08/20 00:37:12;;;;;;;33.83;31.90;;;25.30;99.90;;;;;;5075289;28;20475;-51
2023/08/20 00:39:39;;;;;;;32.77;30.87;;;25.30;99.90;;;;;;5075207;28;20454;-54
2023/08/20 00:42:07;;;;;;;32.83;30.83;;;25.30;99.90;;;;;;5060283;28;20479;-53
2023/08/20 00:44:34;;;;;;;35.57;33.47;;;25.30;99.90;;;;;;5066236;28;20455;-52
2023/08/20 00:47:03;;;;;;;33.63;31.73;;;25.30;99.90;;;;;;5062402;28;20476;-53
2023/08/20 00:49:30;;;;;;;34.57;32.30;;;25.30;99.90;;;;;;5055960;28;20512;-52
2023/08/20 00:51:58;;;;;;;32.20;30.40;;;25.30;99.90;;;;;;5069999;28;20877;-52
2023/08/20 00:54:26;;;;;;;33.50;31.60;;;25.30;99.90;;;;;;5075677;28;20977;-53
2023/08/20 00:56:53;;;;;;;32.13;30.00;;;25.20;99.90;;;;;;5075118;28;20481;-51
2023/08/20 00:59:21;;;;;;;32.57;30.67;;;25.20;99.90;;;;;;5075765;28;20459;-52
2023/08/20 01:01:48;;;;;;;32.37;30.37;;;25.20;99.90;;;;;;5074371;28;20474;-53
2023/08/20 01:04:16;;;;;;;31.17;29.27;;;25.20;99.90;;;;;;5063870;28;20530;-55
2023/08/20 01:06:51;;;;;;;31.60;29.80;;;25.20;99.90;;;;;;5074870;28;21024;-51
2023/08/20 01:09:29;;;;;;;32.33;30.23;;;25.20;99.90;;;;;;5057316;28;20510;-54
2023/08/20 01:11:59;;;;;;;33.50;31.20;;;25.20;99.90;;;;;;5065441;28;20985;-54
2023/08/20 01:14:26;;;;;;;33.17;31.13;;;25.10;99.90;;;;;;5060640;28;20476;-52
2023/08/20 01:16:53;;;;;;;31.07;29.23;;;25.10;99.90;;;;;;5064748;28;20467;-55
2023/08/20 01:19:23;;;;;;;31.73;29.83;;;25.10;99.90;;;;;;5061600;28;20994;-51
2023/08/20 01:22:06;;;;;;;32.83;30.20;;;25.10;99.90;;;;;;5055083;28;20468;-54
2023/08/20 01:24:46;;;;;;;31.33;29.53;;;25.10;99.90;;;;;;5056003;28;20487;-54
2023/08/20 01:27:27;;;;;;;32.47;30.27;;;25.10;99.90;;;;;;5055422;28;20931;-56
2023/08/20 01:29:56;;;;;;;33.83;31.93;;;25.00;99.90;;;;;;5059000;28;20483;-51
2023/08/20 01:32:24;;;;;;;33.23;31.33;;;25.00;99.90;;;;;;5064674;28;20479;-56
2023/08/20 01:34:53;;;;;;;34.90;32.30;;;25.00;99.90;;;;;;5072518;28;20502;-51
2023/08/20 01:37:20;;;;;;;34.87;32.43;;;25.00;99.90;;;;;;5055880;28;20528;-52
2023/08/20 01:39:47;;;;;;;32.50;30.47;;;25.00;99.90;;;;;;5054253;28;20871;-53
2023/08/20 01:42:14;;;;;;;32.70;30.80;;;25.00;99.90;;;;;;5067342;28;20501;-52
2023/08/20 01:44:41;;;;;;;33.00;31.00;;;25.00;99.90;;;;;;5074294;28;20489;-55
2023/08/20 01:47:09;;;;;;;33.23;31.33;;;25.00;99.90;;;;;;5072943;28;20469;-55
2023/08/20 01:49:36;;;;;;;32.30;30.13;;;24.90;99.90;;;;;;5073693;28;20515;-51
2023/08/20 01:52:03;;;;;;;34.67;32.63;;;24.90;99.90;;;;;;5073974;28;20993;-55
2023/08/20 01:54:30;;;;;;;32.40;30.40;;;24.90;99.90;;;;;;5058429;28;20452;-55
2023/08/20 01:56:57;;;;;;;31.10;29.40;;;24.90;99.90;;;;;;5054496;28;20448;-54
2023/08/20 01:59:24;;;;;;;32.97;30.97;;;24.90;99.90;;;;;;5054824;28;20506;-52
2023/08/20 02:01:51;;;;;;;31.77;29.90;;;24.90;99.90;;;;;;5069055;28;20789;-52
2023/08/20 02:04:19;;;;;;;32.40;30.37;;;24.90;99.90;;;;;;5066784;28;20479;-52
2023/08/20 02:06:46;;;;;;;33.47;31.57;;;24.90;99.90;;;;;;5073549;28;20471;-54
2023/08/20 02:09:13;;;;;;;31.27;29.47;;;24.90;99.90;;;;;;5058571;28;20519;-53
2023/08/20 02:11:40;;;;;;;32.40;30.60;;;24.90;99.90;;;;;;5054726;28;20448;-53
2023/08/20 02:14:07;;;;;;;33.27;31.27;;;24.90;99.90;;;;;;5066922;28;20971;-52
2023/08/20 02:16:33;;;;;;;33.60;31.60;;;24.90;99.90;;;;;;5063966;28;20472;-61
2023/08/20 02:19:01;;;;;;;32.77;30.77;;;24.90;99.90;;;;;;5053134;28;20560;-56
2023/08/20 02:21:30;;;;;;;33.60;31.70;;;24.80;99.90;;;;;;5057957;28;20530;-52
2023/08/20 02:23:57;;;;;;;32.40;30.37;;;24.80;99.90;;;;;;5064221;28;20850;-54
2023/08/20 02:26:23;;;;;;;33.43;31.53;;;24.80;99.90;;;;;;5070240;28;21021;-53
2023/08/20 02:28:50;;;;;;;32.90;30.30;;;24.80;99.90;;;;;;5058502;28;20911;-56
2023/08/20 02:31:17;;;;;;;33.40;31.33;;;24.80;99.90;;;;;;5062941;28;20479;-53
2023/08/20 02:33:44;;;;;;;33.00;31.00;;;24.80;99.90;;;;;;5058762;28;20482;-53
2023/08/20 02:36:11;;;;;;;34.30;31.90;;;24.70;99.90;;;;;;5057487;28;20883;-52
2023/08/20 02:38:39;;;;;;;34.37;31.93;;;24.70;99.90;;;;;;5040392;28;20498;-53
2023/08/20 02:41:06;;;;;;;31.93;29.90;;;24.70;99.90;;;;;;5065140;28;20944;-54
2023/08/20 02:43:33;;;;;;;34.47;32.23;;;24.70;99.90;;;;;;5068324;28;20951;-52
2023/08/20 02:46:00;;;;;;;33.20;30.57;;;24.70;99.90;;;;;;5070048;28;20880;-50
2023/08/20 02:48:27;;;;;;;33.27;31.27;;;24.70;99.90;;;;;;5056240;28;20475;-52
2023/08/20 02:50:54;;;;;;;33.17;30.93;;;24.70;99.90;;;;;;5052982;28;20999;-53
2023/08/20 02:53:21;;;;;;;32.80;30.90;;;24.70;99.90;;;;;;5048486;28;20467;-53
2023/08/20 02:55:50;;;;;;;33.77;31.63;;;24.70;99.90;;;;;;5053615;28;20479;-56
2023/08/20 02:58:17;;;;;;;30.47;28.63;;;24.70;99.90;;;;;;5064303;28;20475;-55
2023/08/20 03:00:44;;;;;;;31.63;29.63;;;24.60;99.90;;;;;;5068286;28;20843;-51
2023/08/20 03:03:11;;;;;;;33.23;31.20;;;24.70;99.90;;;;;;5062597;28;20814;-55
2023/08/20 03:05:38;;;;;;;33.23;30.87;;;24.60;99.90;;;;;;5057843;28;20482;-55
2023/08/20 03:08:06;;;;;;;34.93;32.57;;;24.60;99.90;;;;;;5068333;28;20479;-54
2023/08/20 03:10:33;;;;;;;34.47;32.37;;;24.60;99.90;;;;;;5058249;28;20483;-55
2023/08/20 03:13:03;;;;;;;33.63;31.43;;;24.50;99.90;;;;;;5057944;28;21066;-56
2023/08/20 03:15:30;;;;;;;32.87;30.80;;;24.50;99.90;;;;;;5052200;28;20475;-55
2023/08/20 03:17:57;;;;;;;30.87;29.07;;;24.40;99.90;;;;;;5061909;28;20555;-53
2023/08/20 03:20:24;;;;;;;31.90;29.90;;;24.30;99.90;;;;;;5055337;28;20511;-50
2023/08/20 03:22:51;;;;;;;30.33;28.53;;;24.20;99.90;;;;;;5062002;28;20517;-49
2023/08/20 03:25:18;;;;;;;31.13;29.33;;;24.20;99.90;;;;;;5057797;28;20535;-52
2023/08/20 03:27:44;;;;;;;33.47;31.47;;;24.20;99.90;;;;;;5051986;28;20483;-50
2023/08/20 03:30:13;;;;;;;34.27;31.57;;;24.20;99.90;;;;;;5051781;28;21113;-49
2023/08/20 03:32:40;;;;;;;31.90;30.10;;;24.20;99.90;;;;;;5051703;28;20480;-51
2023/08/20 03:35:08;;;;;;;31.83;30.03;;;24.20;99.90;;;;;;5052804;28;20954;-50
2023/08/20 03:37:34;;;;;;;31.00;29.10;;;24.20;99.90;;;;;;5065797;28;20472;-49
2023/08/20 03:40:01;;;;;;;32.27;30.47;;;24.20;99.90;;;;;;5052378;28;20484;-51
2023/08/20 03:42:28;;;;;;;32.30;30.40;;;24.20;99.90;;;;;;5052788;28;20448;-50
2023/08/20 03:44:55;;;;;;;32.03;30.13;;;24.20;99.90;;;;;;5051770;28;20445;-49
2023/08/20 03:47:24;;;;;;;31.40;29.40;;;24.20;99.90;;;;;;5053473;28;20484;-51
2023/08/20 03:49:51;;;;;;;31.00;29.20;;;24.10;99.90;;;;;;5069871;28;20483;-50
2023/08/20 03:52:18;;;;;;;31.03;29.10;;;24.10;99.90;;;;;;5055562;28;20483;-48
2023/08/20 03:54:45;;;;;;;31.93;30.07;;;24.00;99.90;;;;;;5071613;28;20873;-48
2023/08/20 03:57:12;;;;;;;31.53;29.60;;;23.90;99.90;;;;;;5054358;28;20527;-53
2023/08/20 03:59:39;;;;;;;33.60;31.50;;;23.90;99.90;;;;;;5051465;28;20491;-48
2023/08/20 04:02:06;;;;;;;31.80;30.00;;;23.90;99.90;;;;;;5052381;28;20887;-49
2023/08/20 04:04:34;;;;;;;33.33;31.43;;;23.90;99.90;;;;;;5054374;28;20448;-51
2023/08/20 04:07:01;;;;;;;33.93;31.60;;;23.90;99.90;;;;;;5059052;28;21021;-48
2023/08/20 04:09:28;;;;;;;33.23;31.20;;;23.90;99.90;;;;;;5071284;28;20463;-48
2023/08/20 04:11:55;;;;;;;33.87;31.67;;;23.90;99.90;;;;;;5066389;28;20484;-48
2023/08/20 04:14:22;;;;;;;34.83;32.93;;;23.80;99.90;;;;;;5051215;28;21005;-51
2023/08/20 04:16:48;;;;;;;32.87;30.97;;;23.90;99.90;;;;;;5058193;28;20475;-50
2023/08/20 04:19:15;;;;;;;33.23;31.40;;;23.90;99.90;;;;;;5085241;22;20857;-53
2023/08/20 04:21:44;;;;;;;33.37;31.47;;;23.80;99.90;;;;;;4950597;28;20472;-49
2023/08/20 04:24:10;;;;;;;32.50;30.60;;;23.80;99.90;;;;;;4955770;28;20802;-53
2023/08/20 04:26:37;;;;;;;32.57;30.87;;;23.80;99.90;;;;;;4959091;28;20473;-51
2023/08/20 04:29:04;;;;;;;31.93;30.10;;;23.80;99.90;;;;;;4951211;28;20496;-51
2023/08/20 04:31:32;;;;;;;33.83;31.57;;;23.80;99.90;;;;;;4950581;28;20480;-50
2023/08/20 04:33:58;;;;;;;32.47;30.73;;;23.80;99.90;;;;;;4950682;28;20503;-49
2023/08/20 04:36:25;;;;;;;36.77;34.97;;;23.80;99.90;;;;;;4950626;28;20484;-49
2023/08/20 04:38:53;;;;;;;36.90;34.80;;;23.90;99.90;;;;;;4951033;28;20484;-49
2023/08/20 04:41:20;;;;;;;36.80;34.80;;;23.90;99.90;;;;;;4950743;28;20488;-52
2023/08/20 04:43:49;;;;;;;38.73;36.67;;;24.00;99.90;;;;;;4952944;28;20480;-51
2023/08/20 04:46:16;;;;;;;35.97;34.30;;;24.10;99.90;;;;;;4952122;28;20495;-50
2023/08/20 04:48:44;;;;;;;38.03;36.03;;;24.20;99.90;;;;;;4951587;28;20491;-53
2023/08/20 04:51:12;;;;;;;39.00;37.03;;;24.30;99.90;;;;;;4950514;28;21084;-53
2023/08/20 04:53:42;;;;;;;36.83;35.13;;;24.40;99.90;;;;;;4953233;28;20533;-56
2023/08/20 04:56:13;;;;;;;36.43;34.53;;;24.50;99.90;;;;;;4944441;28;20481;-52
2023/08/20 04:58:41;;;;;;;37.70;35.90;;;24.70;99.90;;;;;;4951917;28;20549;-54
2023/08/20 05:01:08;;;;;;;37.67;35.63;;;24.80;99.90;;;;;;4945345;28;20449;-53
2023/08/20 05:03:37;;;;;;;36.37;34.67;;;24.90;99.90;;;;;;4951576;28;20499;-57
2023/08/20 05:06:06;;;;;;;37.20;35.40;;;25.00;99.90;;;;;;4950099;28;20441;-55
2023/08/20 05:08:34;;;;;;;38.13;36.27;;;25.20;99.90;;;;;;4950399;28;20476;-55
2023/08/20 05:11:05;;;;;;;38.83;36.87;;;25.30;99.90;;;;;;4950049;28;21641;-56
2023/08/20 05:13:34;;;;;;;38.23;36.43;;;25.40;99.90;;;;;;4952966;28;20510;-55
2023/08/20 05:16:15;;;;;;;37.00;35.30;;;25.50;99.90;;;;;;4956149;28;20490;-58
2023/08/20 05:18:51;;;;;;;37.50;35.20;;;25.60;99.90;;;;;;4953523;28;20456;-53
2023/08/20 05:21:18;;;;;;;39.17;37.27;;;25.70;99.90;;;;;;4953136;28;20437;-54
2023/08/20 05:23:47;;;;;;;37.53;35.83;;;25.80;99.90;;;;;;4953676;28;20453;-53
2023/08/20 05:26:14;;;;;;;38.57;36.57;;;25.90;99.90;;;;;;4953248;28;20480;-54
2023/08/20 05:28:45;;;;;;;38.80;36.80;;;25.90;99.90;;;;;;4954739;28;20476;-56
2023/08/20 05:31:16;;;;;;;40.80;38.50;;;26.00;99.90;;;;;;4946418;28;20565;-56
2023/08/20 05:33:44;;;;;;;39.80;37.80;;;26.10;99.90;;;;;;4953192;28;20485;-54
2023/08/20 05:36:13;;;;;;;39.10;37.10;;;26.10;99.90;;;;;;4956111;28;20963;-51
2023/08/20 05:38:42;;;;;;;38.40;36.43;;;26.20;99.90;;;;;;4956871;28;20472;-51
2023/08/20 05:41:12;;;;;;;41.70;39.80;;;26.30;99.90;;;;;;4944632;29;20795;-49
2023/08/20 05:43:40;;;;;;;38.77;37.07;;;26.30;99.90;;;;;;4953872;28;20935;-50
2023/08/20 05:46:09;;;;;;;39.80;37.77;;;26.40;99.90;;;;;;4952307;29;20441;-53
2023/08/20 05:48:39;;;;;;;40.60;38.63;;;26.40;99.90;;;;;;4958663;28;20488;-51
2023/08/20 05:51:07;;;;;;;41.43;39.53;;;26.50;99.90;;;;;;4956768;28;20564;-50
2023/08/20 05:53:36;;;;;;;40.17;38.27;;;26.60;99.90;;;;;;4954540;28;20538;-49
2023/08/20 05:56:06;;;;;;;42.07;40.07;;;26.60;99.90;;;;;;4955309;28;22691;-58
2023/08/20 05:58:35;;;;;;;41.60;39.50;;;26.60;99.90;;;;;;4958130;28;20484;-54
2023/08/20 06:01:02;;;;;;;42.60;40.40;;;26.60;99.90;;;;;;4956908;28;20480;-55
2023/08/20 06:03:31;;;;;;;43.93;41.73;;;26.60;99.90;;;;;;4955754;28;20453;-52
2023/08/20 06:06:02;;;;;;;42.90;40.80;;;26.70;99.90;;;;;;4954893;28;21013;-58
2023/08/20 06:08:31;;;;;;;41.03;39.03;;;26.70;99.90;;;;;;4953453;28;20838;-52
2023/08/20 06:11:02;;;;;;;43.30;41.10;;;26.80;99.90;;;;;;4954940;28;20652;-58
2023/08/20 06:13:29;;;;;;;42.57;40.47;;;26.80;99.90;;;;;;4953112;28;20626;-52
2023/08/20 06:15:57;;;;;;;45.23;42.83;;;26.80;99.90;;;;;;4955386;28;20453;-52
2023/08/20 06:18:26;;;;;;;46.97;44.07;;;26.90;99.90;;;;;;4953870;28;20492;-51
2023/08/20 06:20:56;;;;;;;43.13;40.60;;;26.90;99.90;;;;;;4953114;28;20472;-54
2023/08/20 06:23:23;;;;;;;43.27;41.00;;;27.00;99.90;;;;;;4952653;28;20826;-53
2023/08/20 06:25:54;;;;;;;43.73;41.30;;;27.10;99.90;;;;;;4956513;28;20465;-56
2023/08/20 06:28:22;;;;;;;42.50;40.30;;;27.10;99.90;;;;;;4956423;28;20555;-55
2023/08/20 06:30:52;;;;;;;42.57;40.57;;;27.10;99.90;;;;;;4955264;28;20480;-55
2023/08/20 06:33:21;;;;;;;45.97;43.80;;;27.10;99.90;;;;;;4952545;28;20956;-53
2023/08/20 06:35:48;;;;;;;41.87;39.77;;;27.20;99.90;;;;;;4954865;28;20496;-52
2023/08/20 06:38:19;;;;;;;42.97;40.57;;;27.20;99.90;;;;;;4953005;28;20951;-51
2023/08/20 06:40:50;;;;;;;42.83;40.50;;;27.20;99.90;;;;;;4954657;28;20503;-53
2023/08/20 06:43:17;;;;;;;41.10;39.03;;;27.30;99.90;;;;;;4952129;28;20959;-54
2023/08/20 06:45:47;;;;;;;43.77;41.60;;;27.30;99.90;;;;;;4958815;28;20480;-56
2023/08/20 06:48:19;;;;;;;43.00;40.67;;;27.30;99.90;;;;;;4969642;28;20461;-50
2023/08/20 06:50:47;;;;;;;45.07;42.77;;;27.40;99.90;;;;;;4952347;28;20496;-52
2023/08/20 06:53:15;;;;;;;41.87;39.90;;;27.40;99.90;;;;;;4947174;28;20491;-54
2023/08/20 06:55:46;;;;;;;43.20;41.10;;;27.50;99.90;;;;;;4955620;28;20468;-50
2023/08/20 06:58:23;;;;;;;44.50;42.17;;;27.50;99.90;;;;;;4945567;28;20816;-52
2023/08/20 07:01:07;;;;;;;43.20;41.10;;;27.50;99.90;;;;;;4954584;28;20517;-54
2023/08/20 07:03:34;;;;;;;42.20;40.30;;;27.60;99.90;;;;;;4950524;28;20456;-52
2023/08/20 07:06:01;;;;;;;41.20;39.10;;;27.60;99.90;;;;;;4957441;28;20456;-53
2023/08/20 07:08:28;;;;;;;45.47;43.27;;;27.70;99.90;;;;;;4951717;28;20452;-53
2023/08/20 07:10:56;;;;;;;45.47;43.27;;;27.70;99.90;;;;;;4952310;28;20520;-53
2023/08/20 07:13:24;;;;;;;43.57;41.57;;;27.70;99.90;;;;;;4952718;28;20492;-58
2023/08/20 07:15:51;;;;;;;45.33;42.93;;;27.80;99.90;;;;;;4954069;28;20473;-53
2023/08/20 07:18:18;;;;;;;44.93;42.50;;;27.80;99.90;;;;;;4953891;28;20495;-56
2023/08/20 07:20:45;;;;;;;43.53;40.70;;;27.80;99.90;;;;;;4951556;28;20500;-53
2023/08/20 07:23:12;;;;;;;44.00;41.70;;;27.80;99.90;;;;;;4947421;28;20480;-52
2023/08/20 07:25:40;;;;;;;42.63;40.40;;;27.80;99.90;;;;;;4952036;28;20503;-56
2023/08/20 07:28:09;;;;;;;45.67;43.33;;;27.80;99.90;;;;;;4960926;28;20484;-53
2023/08/20 07:30:36;;;;;;;41.20;39.10;;;27.90;99.90;;;;;;4954642;28;20903;-55
2023/08/20 07:33:04;;;;;;;42.30;39.80;;;27.90;99.90;;;;;;4954131;28;20485;-54
2023/08/20 07:35:30;;;;;;;44.40;42.30;;;28.00;99.90;;;;;;4954917;28;20449;-55
2023/08/20 07:37:57;;;;;;;43.43;41.33;;;28.00;99.90;;;;;;4954269;28;20449;-53
2023/08/20 07:40:24;;;;;;;42.70;40.50;;;28.00;99.90;;;;;;4953604;28;20508;-52
2023/08/20 07:42:52;;;;;;;42.80;40.63;;;28.00;99.90;;;;;;4951938;28;20487;-53
2023/08/20 07:45:20;;;;;;;43.40;41.20;;;28.10;99.90;;;;;;4952901;28;20968;-58
2023/08/20 07:47:47;;;;;;;46.43;44.00;;;28.10;99.90;;;;;;4954715;28;20500;-52
2023/08/20 07:50:14;;;;;;;45.77;42.83;;;28.10;99.90;;;;;;4954512;28;20492;-51
2023/08/20 07:52:41;;;;;;;46.80;44.17;;;28.00;99.90;;;;;;4951532;28;20508;-55
2023/08/20 07:55:09;;;;;;;45.93;43.50;;;28.10;99.90;;;;;;4954895;28;20457;-53
2023/08/20 07:57:36;;;;;;;45.80;43.40;;;28.00;99.90;;;;;;4953348;28;20477;-55
2023/08/20 08:00:06;;;;;;;45.53;43.27;;;28.10;99.90;;;;;;4951016;28;20504;-57
2023/08/20 08:02:41;;;;;;;45.83;43.37;;;28.10;99.90;;;;;;4953309;28;20867;-55
2023/08/20 08:05:14;;;;;;;46.63;44.30;;;28.10;99.90;;;;;;4942083;28;20472;-50
2023/08/20 08:07:52;;;;;;;47.63;45.23;;;28.20;99.90;;;;;;4952911;28;20963;-54
2023/08/20 08:10:21;;;;;;;44.53;42.40;;;28.30;99.90;;;;;;4943472;29;20511;-54
2023/08/20 08:12:52;;;;;;;45.17;42.80;;;28.30;99.90;;;;;;4950386;28;20484;-56
2023/08/20 08:15:20;;;;;;;44.70;42.33;;;28.30;99.90;;;;;;4943452;29;20453;-55
2023/08/20 08:17:50;;;;;;;48.07;45.47;;;28.30;99.90;;;;;;4951012;28;20456;-51
2023/08/20 08:20:17;;;;;;;45.80;43.50;;;28.40;99.90;;;;;;4937252;28;20508;-52
2023/08/20 08:22:45;;;;;;;45.23;42.90;;;28.30;99.90;;;;;;4949869;28;20527;-52
2023/08/20 08:25:23;;;;;;;47.23;44.53;;;28.40;99.90;;;;;;4955617;28;20885;-52
2023/08/20 08:27:57;;;;;;;44.63;42.33;;;28.40;99.90;;;;;;4954796;28;20461;-61
2023/08/20 08:30:25;;;;;;;48.40;45.93;;;28.30;99.90;;;;;;4949354;29;20492;-50
2023/08/20 08:32:54;;;;;;;45.53;43.23;;;28.40;99.90;;;;;;4954762;28;20468;-55
2023/08/20 08:35:23;;;;;;;45.50;43.20;;;28.40;99.90;;;;;;4950801;28;20481;-55
2023/08/20 08:37:53;;;;;;;50.63;47.83;;;28.40;99.90;;;;;;4950790;28;20994;-50
2023/08/20 08:40:20;;;;;;;49.40;46.90;;;28.40;99.90;;;;;;4951487;28;20472;-56
2023/08/20 08:42:50;;;;;;;47.47;44.60;;;28.40;99.90;;;;;;4950317;28;20536;-53
2023/08/20 08:45:20;;;;;;;47.97;45.63;;;28.40;99.90;;;;;;4951842;28;20475;-50
2023/08/20 08:47:48;;;;;;;46.43;44.20;;;28.40;99.90;;;;;;4961576;28;20448;-56
2023/08/20 08:50:16;;;;;;;48.73;46.13;;;28.50;99.90;;;;;;4960843;28;20500;-55
2023/08/20 08:52:45;;;;;;;48.77;46.27;;;28.50;99.90;;;;;;4959491;28;21019;-51
2023/08/20 08:55:12;;;;;;;45.80;43.60;;;28.50;99.90;;;;;;4965568;28;20899;-52
2023/08/20 08:57:39;;;;;;;46.97;44.57;;;28.50;99.90;;;;;;4959203;28;20483;-50
2023/08/20 09:00:08;;;;;;;44.87;42.67;;;28.50;99.90;;;;;;4955446;28;20508;-52
2023/08/20 09:02:35;;;;;;;45.80;43.60;;;28.50;99.90;;;;;;4960418;28;20444;-52
2023/08/20 09:05:01;;;;;;;45.20;43.00;;;28.60;99.90;;;;;;4960414;28;20481;-54
2023/08/20 09:07:30;;;;;;;46.57;44.40;;;28.60;99.90;;;;;;4953732;28;20479;-54
2023/08/20 09:10:00;;;;;;;47.13;44.93;;;28.60;99.90;;;;;;4959387;28;20468;-53
2023/08/20 09:12:27;;;;;;;45.27;43.17;;;28.70;99.90;;;;;;4955719;28;20871;-50
2023/08/20 09:14:57;;;;;;;45.47;43.27;;;28.70;99.90;;;;;;4956539;28;20952;-52
2023/08/20 09:17:26;;;;;;;42.60;40.80;;;28.70;99.90;;;;;;4959512;28;20460;-58
2023/08/20 09:19:57;;;;;;;40.60;38.90;;;28.70;99.90;;;;;;4954727;28;20479;-52
2023/08/20 09:22:24;;;;;;;44.00;42.20;;;28.50;99.90;;;;;;4964132;28;20201;-53
2023/08/20 09:24:56;;;;;;;49.23;47.33;;;28.60;99.90;;;;;;4957566;28;20472;-50
2023/08/20 09:27:24;;;;;;;44.50;42.70;;;28.70;99.90;;;;;;4948971;29;20485;-52
2023/08/20 09:29:53;;;;;;;45.70;43.97;;;28.70;99.90;;;;;;4955026;28;20497;-50
2023/08/20 09:32:21;;;;;;;44.57;42.97;;;28.70;99.90;;;;;;4957477;28;20480;-51
2023/08/20 09:34:49;;;;;;;44.40;42.70;;;28.70;99.90;;;;;;4956816;28;20468;-50
2023/08/20 09:37:17;;;;;;;44.50;42.90;;;28.70;99.90;;;;;;4957487;28;20495;-51
2023/08/20 09:39:44;;;;;;;44.87;43.27;;;28.70;99.90;;;;;;4957467;28;20493;-52
2023/08/20 09:42:13;;;;;;;46.73;45.00;;;28.70;99.90;;;;;;4954817;28;20479;-53
2023/08/20 09:44:41;;;;;;;45.87;44.17;;;28.70;99.90;;;;;;4954744;28;20492;-53
2023/08/20 09:47:10;;;;;;;47.23;45.43;;;28.60;99.90;;;;;;4955108;28;20512;-50
2023/08/20 09:49:39;;;;;;;43.40;41.70;;;28.60;99.90;;;;;;4955301;28;20548;-51
2023/08/20 09:52:08;;;;;;;44.37;42.77;;;28.60;99.90;;;;;;4954199;28;20516;-50
2023/08/20 09:54:58;;;;;;;46.23;44.50;;;28.60;99.90;;;;;;4955118;28;20449;-52
2023/08/20 09:57:34;;;;;;;50.30;48.40;;;28.60;99.90;;;;;;4948150;29;20477;-48
2023/08/20 10:00:02;;;;;;;46.23;44.53;;;28.60;99.90;;;;;;4954578;28;20491;-53
2023/08/20 10:02:30;;;;;;;46.23;44.63;;;28.60;99.90;;;;;;4955105;28;20448;-51
2023/08/20 10:04:56;;;;;;;45.30;43.70;;;28.60;99.90;;;;;;4955618;28;20848;-51
2023/08/20 10:07:25;;;;;;;48.20;45.80;;;28.70;99.90;;;;;;4955521;28;20480;-52
2023/08/20 10:09:53;;;;;;;44.73;43.13;;;28.70;99.90;;;;;;4955870;28;20526;-51
2023/08/20 10:12:20;;;;;;;46.50;44.63;;;28.70;99.90;;;;;;4951004;28;20518;-50
2023/08/20 10:14:49;;;;;;;45.43;43.83;;;28.60;99.90;;;;;;4959547;28;20910;-51
2023/08/20 10:17:16;;;;;;;46.60;44.80;;;28.60;99.90;;;;;;4956614;28;20483;-49
2023/08/20 10:19:43;;;;;;;48.40;46.50;;;28.60;99.90;;;;;;4984392;22;20492;-49
2023/08/20 10:22:11;;;;;;;47.07;45.17;;;28.60;99.90;;;;;;5043603;28;20437;-53
2023/08/20 10:24:49;;;;;;;45.30;43.60;;;28.60;99.90;;;;;;5039099;28;20437;-56
2023/08/20 10:27:26;;;;;;;45.43;43.73;;;28.60;99.90;;;;;;5049146;28;20528;-58
2023/08/20 10:29:55;;;;;;;46.17;44.47;;;28.60;99.90;;;;;;5041427;28;20482;-56
2023/08/20 10:32:47;;;;;;;45.20;43.50;;;28.70;99.90;;;;;;5041224;28;20564;-54
2023/08/20 10:35:15;;;;;;;46.33;44.53;;;28.60;99.90;;;;;;5043916;28;20445;-57
2023/08/20 10:38:02;;;;;;;47.43;45.43;;;28.70;99.90;;;;;;5044678;28;20468;-56
2023/08/20 10:40:49;;;;;;;47.00;45.07;;;28.60;99.90;;;;;;5034558;28;20997;-56
2023/08/20 10:43:28;;;;;;;49.37;47.57;;;28.70;99.90;;;;;;5042998;28;20441;-57
2023/08/20 10:46:08;;;;;;;45.73;43.83;;;28.70;99.90;;;;;;5044596;28;20487;-53
2023/08/20 10:48:36;;;;;;;51.40;49.20;;;28.70;99.90;;;;;;5034814;28;20872;-55
2023/08/20 10:51:14;;;;;;;50.37;48.00;;;28.70;99.90;;;;;;5042070;28;21042;-56
2023/08/20 10:53:42;;;;;;;48.30;46.30;;;28.70;99.90;;;;;;5044125;28;20514;-56
2023/08/20 10:56:16;;;;;;;47.97;45.97;;;28.70;99.90;;;;;;5043543;28;20456;-58
2023/08/20 10:58:44;;;;;;;50.10;48.13;;;28.70;99.90;;;;;;5040787;28;20480;-58
2023/08/20 11:01:26;;;;;;;47.60;45.40;;;28.70;99.90;;;;;;5043785;28;20559;-57
2023/08/20 11:03:53;;;;;;;48.33;46.53;;;28.70;99.90;;;;;;5039716;28;20503;-59
2023/08/20 11:06:20;;;;;;;49.17;46.77;;;28.80;99.90;;;;;;5044215;28;20472;-59
2023/08/20 11:08:47;;;;;;;50.93;48.97;;;28.80;99.90;;;;;;5044499;28;20523;-58
2023/08/20 11:11:14;;;;;;;47.17;45.27;;;28.90;99.90;;;;;;5041565;28;20499;-57
2023/08/20 11:13:42;;;;;;;50.97;49.07;;;28.90;99.90;;;;;;5040083;28;20512;-60
2023/08/20 11:16:10;;;;;;;50.77;48.77;;;29.00;99.90;;;;;;5042360;28;20446;-60
2023/08/20 11:18:38;;;;;;;50.80;48.73;;;28.90;99.90;;;;;;5041785;28;20550;-55
2023/08/20 11:21:04;;;;;;;50.63;48.67;;;29.00;99.90;;;;;;5048047;28;20515;-60
2023/08/20 11:23:32;;;;;;;51.97;49.73;;;29.10;99.90;;;;;;5043647;28;20528;-58
2023/08/20 11:25:59;;;;;;;46.10;44.20;;;29.10;99.80;;;;;;5043673;28;20225;-52
2023/08/20 11:28:29;;;;;;;48.87;46.97;;;29.20;99.90;;;;;;5040670;28;20865;-55
2023/08/20 11:30:57;;;;;;;45.27;43.53;;;29.20;99.90;;;;;;5040306;28;20492;-55
2023/08/20 11:33:26;;;;;;;43.70;41.67;;;29.30;99.90;;;;;;5040057;28;20995;-56
2023/08/20 11:35:54;;;;;;;43.07;41.23;;;29.30;99.90;;;;;;5040306;28;20524;-54
2023/08/20 11:41:07;;;;;;;43.37;41.57;;;29.30;99.90;;;;;;5042716;28;20460;-52
2023/08/20 11:43:37;;;;;;;44.80;42.63;;;29.20;99.90;;;;;;5040168;28;20432;-51
2023/08/20 11:46:05;;;;;;;45.63;43.83;;;29.20;99.90;;;;;;5047205;28;20448;-52
2023/08/20 11:48:36;;;;;;;45.20;43.40;;;29.20;99.80;;;;;;5039862;28;20499;-56
2023/08/20 11:51:06;;;;;;;46.67;44.67;;;29.30;99.60;;;;;;5040461;28;20460;-57
2023/08/20 11:53:40;;;;;;;47.60;45.60;;;29.10;99.70;;;;;;5043046;28;20506;-49
2023/08/20 11:56:13;;;;;;;45.87;43.80;;;28.90;99.90;;;;;;5042012;28;20444;-52
2023/08/20 11:58:41;;;;;;;45.80;43.37;;;28.90;99.90;;;;;;5039828;28;20542;-54
2023/08/20 12:01:12;;;;;;;47.07;44.97;;;28.80;99.90;;;;;;5043050;28;20501;-55
2023/08/20 12:03:40;;;;;;;44.40;42.60;;;28.70;99.90;;;;;;5043138;28;20531;-53
2023/08/20 12:06:22;;;;;;;44.90;42.93;;;28.50;99.90;;;;;;5024558;28;20539;-51
2023/08/20 12:08:50;;;;;;;46.70;44.37;;;28.60;99.90;;;;;;5044887;28;20478;-53
2023/08/20 12:11:22;;;;;;;46.90;44.60;;;28.40;99.90;;;;;;5040992;28;20464;-55
2023/08/20 12:13:54;;;;;;;46.43;44.53;;;28.30;99.90;;;;;;5046356;28;20486;-53
2023/08/20 12:16:25;;;;;;;45.07;42.77;;;28.40;99.90;;;;;;5023334;28;20437;-58
2023/08/20 12:18:53;;;;;;;43.73;41.87;;;28.30;99.90;;;;;;5041156;28;20503;-58
2023/08/20 12:21:24;;;;;;;43.37;41.53;;;28.10;99.90;;;;;;5043102;28;20843;-52
2023/08/20 12:23:52;;;;;;;45.57;43.67;;;28.20;99.90;;;;;;5045243;28;20460;-51
2023/08/20 12:26:19;;;;;;;44.93;43.13;;;28.30;99.90;;;;;;5044986;28;20471;-52
2023/08/20 12:28:47;;;;;;;46.73;44.67;;;28.30;99.90;;;;;;5045149;28;20472;-51
2023/08/20 12:31:15;;;;;;;46.33;44.27;;;28.30;99.90;;;;;;5045949;28;20538;-53
2023/08/20 12:33:45;;;;;;;47.50;45.20;;;28.30;99.90;;;;;;5046552;28;20851;-56
2023/08/20 12:36:14;;;;;;;49.50;47.20;;;28.30;99.90;;;;;;5045036;28;20470;-52
2023/08/20 12:38:49;;;;;;;50.13;47.93;;;28.20;99.90;;;;;;5046260;28;20460;-51